sensor_id;sensor_type;location;lat;lon;timestamp;P1;durP1;ratioP1;P2;durP2;ratioP2
10410;SDS011;5251;52.112;8.606;2023-05-07T00:00:36;13.30;;;11.63;;
10410;SDS011;5251;52.112;8.606;2023-05-07T00:03:02;12.60;;;11.20;;
10410;SDS011;5251;52.112;8.606;2023-05-07T00:05:28;12.35;;;11.05;;
10410;SDS011;5251;52.112;8.606;2023-05-07T00:07:53;14.73;;;12.15;;
10410;SDS011;5251;52.112;8.606;2023-05-07T00:10:19;13.43;;;12.02;;
10410;SDS011;5251;52.112;8.606;2023-05-07T00:12:44;12.93;;;11.15;;
10410;SDS011;5251;52.112;8.606;2023-05-07T00:15:10;13.25;;;11.85;;
10410;SDS011;5251;52.112;8.606;2023-05-07T00:17:36;14.43;;;11.88;;
10410;SDS011;5251;52.112;8.606;2023-05-07T00:20:02;13.68;;;12.18;;
10410;SDS011;5251;52.112;8.606;2023-05-07T00:22:29;15.15;;;12.10;;
10410;SDS011;5251;52.112;8.606;2023-05-07T00:24:56;15.18;;;11.98;;
10410;SDS011;5251;52.112;8.606;2023-05-07T00:27:22;14.05;;;12.10;;
10410;SDS011;5251;52.112;8.606;2023-05-07T00:29:47;15.13;;;12.35;;
10410;SDS011;5251;52.112;8.606;2023-05-07T00:32:13;17.15;;;11.98;;
10410;SDS011;5251;52.112;8.606;2023-05-07T00:34:39;14.32;;;12.52;;
10410;SDS011;5251;52.112;8.606;2023-05-07T00:37:04;15.35;;;11.63;;
10410;SDS011;5251;52.112;8.606;2023-05-07T00:39:32;18.40;;;12.45;;
10410;SDS011;5251;52.112;8.606;2023-05-07T00:41:58;13.50;;;12.05;;
10410;SDS011;5251;52.112;8.606;2023-05-07T00:44:24;14.13;;;12.20;;
10410;SDS011;5251;52.112;8.606;2023-05-07T00:46:50;16.00;;;12.75;;
10410;SDS011;5251;52.112;8.606;2023-05-07T00:49:16;14.68;;;12.55;;
10410;SDS011;5251;52.112;8.606;2023-05-07T00:51:43;15.77;;;12.65;;
10410;SDS011;5251;52.112;8.606;2023-05-07T00:54:09;14.10;;;12.32;;
10410;SDS011;5251;52.112;8.606;2023-05-07T00:56:36;15.07;;;12.07;;
10410;SDS011;5251;52.112;8.606;2023-05-07T00:59:02;16.10;;;12.65;;
10410;SDS011;5251;52.112;8.606;2023-05-07T01:01:28;16.83;;;12.85;;
10410;SDS011;5251;52.112;8.606;2023-05-07T01:03:54;14.23;;;12.65;;
10410;SDS011;5251;52.112;8.606;2023-05-07T01:06:20;16.13;;;13.30;;
10410;SDS011;5251;52.112;8.606;2023-05-07T01:08:48;15.25;;;13.10;;
10410;SDS011;5251;52.112;8.606;2023-05-07T01:11:15;15.68;;;12.77;;
10410;SDS011;5251;52.112;8.606;2023-05-07T01:13:44;15.35;;;12.98;;
10410;SDS011;5251;52.112;8.606;2023-05-07T01:16:10;14.90;;;12.88;;
10410;SDS011;5251;52.112;8.606;2023-05-07T01:18:36;14.63;;;12.85;;
10410;SDS011;5251;52.112;8.606;2023-05-07T01:21:01;15.45;;;13.18;;
10410;SDS011;5251;52.112;8.606;2023-05-07T01:23:30;16.92;;;12.90;;
10410;SDS011;5251;52.112;8.606;2023-05-07T01:25:55;15.88;;;13.35;;
10410;SDS011;5251;52.112;8.606;2023-05-07T01:28:21;15.35;;;12.90;;
10410;SDS011;5251;52.112;8.606;2023-05-07T01:30:55;14.55;;;12.95;;
10410;SDS011;5251;52.112;8.606;2023-05-07T01:33:26;15.15;;;12.80;;
10410;SDS011;5251;52.112;8.606;2023-05-07T01:35:56;14.30;;;12.80;;
10410;SDS011;5251;52.112;8.606;2023-05-07T01:38:25;15.40;;;12.43;;
10410;SDS011;5251;52.112;8.606;2023-05-07T01:40:51;15.98;;;13.13;;
10410;SDS011;5251;52.112;8.606;2023-05-07T01:43:18;14.45;;;12.20;;
10410;SDS011;5251;52.112;8.606;2023-05-07T01:45:44;15.60;;;12.95;;
10410;SDS011;5251;52.112;8.606;2023-05-07T01:48:11;17.10;;;13.38;;
10410;SDS011;5251;52.112;8.606;2023-05-07T01:50:37;14.85;;;13.07;;
10410;SDS011;5251;52.112;8.606;2023-05-07T01:53:03;16.25;;;12.93;;
10410;SDS011;5251;52.112;8.606;2023-05-07T01:55:29;14.77;;;13.05;;
10410;SDS011;5251;52.112;8.606;2023-05-07T01:57:55;15.27;;;12.75;;
10410;SDS011;5251;52.112;8.606;2023-05-07T02:00:20;15.05;;;12.68;;
10410;SDS011;5251;52.112;8.606;2023-05-07T02:02:46;16.00;;;13.25;;
10410;SDS011;5251;52.112;8.606;2023-05-07T02:05:12;17.00;;;13.57;;
10410;SDS011;5251;52.112;8.606;2023-05-07T02:07:38;15.75;;;14.05;;
10410;SDS011;5251;52.112;8.606;2023-05-07T02:10:04;16.67;;;13.23;;
10410;SDS011;5251;52.112;8.606;2023-05-07T02:12:30;14.95;;;12.98;;
10410;SDS011;5251;52.112;8.606;2023-05-07T02:14:55;16.38;;;14.10;;
10410;SDS011;5251;52.112;8.606;2023-05-07T02:17:21;15.50;;;13.18;;
10410;SDS011;5251;52.112;8.606;2023-05-07T02:19:47;15.25;;;13.18;;
10410;SDS011;5251;52.112;8.606;2023-05-07T02:22:12;17.45;;;14.65;;
10410;SDS011;5251;52.112;8.606;2023-05-07T02:24:38;15.65;;;13.80;;
10410;SDS011;5251;52.112;8.606;2023-05-07T02:27:03;16.52;;;13.30;;
10410;SDS011;5251;52.112;8.606;2023-05-07T02:29:29;16.60;;;14.02;;
10410;SDS011;5251;52.112;8.606;2023-05-07T02:31:55;18.27;;;14.35;;
10410;SDS011;5251;52.112;8.606;2023-05-07T02:34:20;15.95;;;13.95;;
10410;SDS011;5251;52.112;8.606;2023-05-07T02:36:46;15.98;;;14.10;;
10410;SDS011;5251;52.112;8.606;2023-05-07T02:39:12;15.68;;;13.57;;
10410;SDS011;5251;52.112;8.606;2023-05-07T02:41:38;15.27;;;13.68;;
10410;SDS011;5251;52.112;8.606;2023-05-07T02:44:03;16.20;;;13.60;;
10410;SDS011;5251;52.112;8.606;2023-05-07T02:46:29;16.50;;;13.95;;
10410;SDS011;5251;52.112;8.606;2023-05-07T02:48:55;18.33;;;14.40;;
10410;SDS011;5251;52.112;8.606;2023-05-07T02:51:21;17.17;;;14.18;;
10410;SDS011;5251;52.112;8.606;2023-05-07T02:53:47;16.38;;;13.75;;
10410;SDS011;5251;52.112;8.606;2023-05-07T02:56:13;17.30;;;14.93;;
10410;SDS011;5251;52.112;8.606;2023-05-07T02:58:39;15.88;;;14.02;;
10410;SDS011;5251;52.112;8.606;2023-05-07T03:01:05;17.15;;;14.30;;
10410;SDS011;5251;52.112;8.606;2023-05-07T03:03:31;16.40;;;14.30;;
10410;SDS011;5251;52.112;8.606;2023-05-07T03:05:57;17.35;;;14.60;;
10410;SDS011;5251;52.112;8.606;2023-05-07T03:08:22;17.05;;;14.02;;
10410;SDS011;5251;52.112;8.606;2023-05-07T03:10:49;17.10;;;14.48;;
10410;SDS011;5251;52.112;8.606;2023-05-07T03:13:15;15.63;;;13.73;;
10410;SDS011;5251;52.112;8.606;2023-05-07T03:15:41;18.85;;;14.18;;
10410;SDS011;5251;52.112;8.606;2023-05-07T03:18:07;16.05;;;14.27;;
10410;SDS011;5251;52.112;8.606;2023-05-07T03:20:32;16.25;;;14.52;;
10410;SDS011;5251;52.112;8.606;2023-05-07T03:22:58;17.30;;;14.43;;
10410;SDS011;5251;52.112;8.606;2023-05-07T03:25:24;16.52;;;13.52;;
10410;SDS011;5251;52.112;8.606;2023-05-07T03:27:49;18.23;;;14.18;;
10410;SDS011;5251;52.112;8.606;2023-05-07T03:30:15;17.13;;;14.35;;
10410;SDS011;5251;52.112;8.606;2023-05-07T03:32:41;16.92;;;14.20;;
10410;SDS011;5251;52.112;8.606;2023-05-07T03:35:06;16.90;;;14.48;;
10410;SDS011;5251;52.112;8.606;2023-05-07T03:37:32;18.13;;;13.95;;
10410;SDS011;5251;52.112;8.606;2023-05-07T03:39:58;15.90;;;14.10;;
10410;SDS011;5251;52.112;8.606;2023-05-07T03:42:23;16.63;;;13.80;;
10410;SDS011;5251;52.112;8.606;2023-05-07T03:44:49;18.17;;;14.80;;
10410;SDS011;5251;52.112;8.606;2023-05-07T03:47:15;18.00;;;14.43;;
10410;SDS011;5251;52.112;8.606;2023-05-07T03:49:40;17.40;;;14.57;;
10410;SDS011;5251;52.112;8.606;2023-05-07T03:52:06;18.50;;;14.50;;
10410;SDS011;5251;52.112;8.606;2023-05-07T03:54:32;17.45;;;14.65;;
10410;SDS011;5251;52.112;8.606;2023-05-07T03:56:57;17.55;;;13.85;;
10410;SDS011;5251;52.112;8.606;2023-05-07T03:59:23;17.73;;;14.32;;
10410;SDS011;5251;52.112;8.606;2023-05-07T04:01:48;16.50;;;14.32;;
10410;SDS011;5251;52.112;8.606;2023-05-07T04:04:14;18.27;;;15.45;;
10410;SDS011;5251;52.112;8.606;2023-05-07T04:06:40;19.13;;;15.32;;
10410;SDS011;5251;52.112;8.606;2023-05-07T04:09:06;18.20;;;14.93;;
10410;SDS011;5251;52.112;8.606;2023-05-07T04:11:31;17.25;;;15.13;;
10410;SDS011;5251;52.112;8.606;2023-05-07T04:13:57;17.95;;;14.80;;
10410;SDS011;5251;52.112;8.606;2023-05-07T04:16:23;18.92;;;15.35;;
10410;SDS011;5251;52.112;8.606;2023-05-07T04:18:48;16.13;;;14.10;;
10410;SDS011;5251;52.112;8.606;2023-05-07T04:21:23;18.60;;;15.05;;
10410;SDS011;5251;52.112;8.606;2023-05-07T04:23:48;18.35;;;15.13;;
10410;SDS011;5251;52.112;8.606;2023-05-07T04:26:14;18.33;;;14.88;;
10410;SDS011;5251;52.112;8.606;2023-05-07T04:28:40;17.00;;;14.50;;
10410;SDS011;5251;52.112;8.606;2023-05-07T04:31:06;16.42;;;14.18;;
10410;SDS011;5251;52.112;8.606;2023-05-07T04:33:32;18.70;;;14.48;;
10410;SDS011;5251;52.112;8.606;2023-05-07T04:35:58;16.77;;;13.85;;
10410;SDS011;5251;52.112;8.606;2023-05-07T04:38:29;17.80;;;14.48;;
10410;SDS011;5251;52.112;8.606;2023-05-07T04:40:55;17.75;;;14.85;;
10410;SDS011;5251;52.112;8.606;2023-05-07T04:43:22;17.45;;;14.38;;
10410;SDS011;5251;52.112;8.606;2023-05-07T04:45:47;18.83;;;14.77;;
10410;SDS011;5251;52.112;8.606;2023-05-07T04:48:15;18.88;;;15.20;;
10410;SDS011;5251;52.112;8.606;2023-05-07T04:50:41;17.70;;;14.52;;
10410;SDS011;5251;52.112;8.606;2023-05-07T04:53:06;16.98;;;14.35;;
10410;SDS011;5251;52.112;8.606;2023-05-07T04:55:32;18.42;;;15.18;;
10410;SDS011;5251;52.112;8.606;2023-05-07T04:57:57;17.58;;;14.88;;
10410;SDS011;5251;52.112;8.606;2023-05-07T05:00:25;16.98;;;14.38;;
10410;SDS011;5251;52.112;8.606;2023-05-07T05:02:51;19.38;;;14.40;;
10410;SDS011;5251;52.112;8.606;2023-05-07T05:05:16;19.27;;;13.98;;
10410;SDS011;5251;52.112;8.606;2023-05-07T05:07:42;18.60;;;15.70;;
10410;SDS011;5251;52.112;8.606;2023-05-07T05:10:07;17.98;;;14.90;;
10410;SDS011;5251;52.112;8.606;2023-05-07T05:12:33;18.48;;;14.93;;
10410;SDS011;5251;52.112;8.606;2023-05-07T05:14:59;18.90;;;15.05;;
10410;SDS011;5251;52.112;8.606;2023-05-07T05:17:24;19.08;;;15.50;;
10410;SDS011;5251;52.112;8.606;2023-05-07T05:19:50;20.48;;;16.15;;
10410;SDS011;5251;52.112;8.606;2023-05-07T05:22:15;18.00;;;14.60;;
10410;SDS011;5251;52.112;8.606;2023-05-07T05:24:41;19.50;;;15.30;;
10410;SDS011;5251;52.112;8.606;2023-05-07T05:27:07;18.60;;;14.25;;
10410;SDS011;5251;52.112;8.606;2023-05-07T05:29:32;19.50;;;15.65;;
10410;SDS011;5251;52.112;8.606;2023-05-07T05:31:58;21.30;;;15.38;;
10410;SDS011;5251;52.112;8.606;2023-05-07T05:34:23;20.42;;;15.63;;
10410;SDS011;5251;52.112;8.606;2023-05-07T05:36:49;19.10;;;15.65;;
10410;SDS011;5251;52.112;8.606;2023-05-07T05:39:14;20.27;;;16.00;;
10410;SDS011;5251;52.112;8.606;2023-05-07T05:41:40;18.83;;;15.05;;
10410;SDS011;5251;52.112;8.606;2023-05-07T05:44:06;18.75;;;15.60;;
10410;SDS011;5251;52.112;8.606;2023-05-07T05:46:31;19.05;;;15.27;;
10410;SDS011;5251;52.112;8.606;2023-05-07T05:48:57;17.63;;;15.13;;
10410;SDS011;5251;52.112;8.606;2023-05-07T05:51:23;16.17;;;13.80;;
10410;SDS011;5251;52.112;8.606;2023-05-07T05:53:48;18.98;;;15.20;;
10410;SDS011;5251;52.112;8.606;2023-05-07T05:56:15;20.65;;;15.73;;
10410;SDS011;5251;52.112;8.606;2023-05-07T05:58:41;17.95;;;14.38;;
10410;SDS011;5251;52.112;8.606;2023-05-07T06:01:06;18.20;;;14.73;;
10410;SDS011;5251;52.112;8.606;2023-05-07T06:03:32;17.25;;;14.00;;
10410;SDS011;5251;52.112;8.606;2023-05-07T06:05:58;17.98;;;13.88;;
10410;SDS011;5251;52.112;8.606;2023-05-07T06:08:25;16.83;;;13.45;;
10410;SDS011;5251;52.112;8.606;2023-05-07T06:10:50;15.95;;;13.85;;
10410;SDS011;5251;52.112;8.606;2023-05-07T06:13:16;15.93;;;12.93;;
10410;SDS011;5251;52.112;8.606;2023-05-07T06:15:42;15.15;;;13.07;;
10410;SDS011;5251;52.112;8.606;2023-05-07T06:18:07;14.40;;;12.05;;
10410;SDS011;5251;52.112;8.606;2023-05-07T06:20:33;15.75;;;12.95;;
10410;SDS011;5251;52.112;8.606;2023-05-07T06:22:59;14.20;;;12.15;;
10410;SDS011;5251;52.112;8.606;2023-05-07T06:25:24;14.35;;;12.43;;
10410;SDS011;5251;52.112;8.606;2023-05-07T06:27:50;16.75;;;12.98;;
10410;SDS011;5251;52.112;8.606;2023-05-07T06:30:16;15.63;;;12.45;;
10410;SDS011;5251;52.112;8.606;2023-05-07T06:32:41;13.57;;;11.45;;
10410;SDS011;5251;52.112;8.606;2023-05-07T06:35:07;15.82;;;12.73;;
10410;SDS011;5251;52.112;8.606;2023-05-07T06:37:33;14.20;;;11.80;;
10410;SDS011;5251;52.112;8.606;2023-05-07T06:39:58;13.13;;;11.30;;
10410;SDS011;5251;52.112;8.606;2023-05-07T06:42:24;13.50;;;12.07;;
10410;SDS011;5251;52.112;8.606;2023-05-07T06:44:50;13.27;;;10.75;;
10410;SDS011;5251;52.112;8.606;2023-05-07T06:47:15;14.35;;;11.52;;
10410;SDS011;5251;52.112;8.606;2023-05-07T06:49:41;12.85;;;10.30;;
10410;SDS011;5251;52.112;8.606;2023-05-07T06:52:07;12.95;;;10.88;;
10410;SDS011;5251;52.112;8.606;2023-05-07T06:54:32;12.68;;;10.45;;
10410;SDS011;5251;52.112;8.606;2023-05-07T06:56:58;12.85;;;10.25;;
10410;SDS011;5251;52.112;8.606;2023-05-07T06:59:23;11.10;;;9.90;;
10410;SDS011;5251;52.112;8.606;2023-05-07T07:01:49;11.70;;;10.48;;
10410;SDS011;5251;52.112;8.606;2023-05-07T07:04:15;16.25;;;10.63;;
10410;SDS011;5251;52.112;8.606;2023-05-07T07:06:40;13.55;;;10.52;;
10410;SDS011;5251;52.112;8.606;2023-05-07T07:09:06;10.18;;;8.88;;
10410;SDS011;5251;52.112;8.606;2023-05-07T07:11:31;10.27;;;9.23;;
10410;SDS011;5251;52.112;8.606;2023-05-07T07:13:57;11.85;;;9.77;;
10410;SDS011;5251;52.112;8.606;2023-05-07T07:16:23;11.65;;;10.00;;
10410;SDS011;5251;52.112;8.606;2023-05-07T07:18:49;10.45;;;9.40;;
10410;SDS011;5251;52.112;8.606;2023-05-07T07:21:15;11.23;;;9.95;;
10410;SDS011;5251;52.112;8.606;2023-05-07T07:23:41;10.63;;;9.45;;
10410;SDS011;5251;52.112;8.606;2023-05-07T07:26:06;10.70;;;9.60;;
10410;SDS011;5251;52.112;8.606;2023-05-07T07:28:33;10.32;;;8.75;;
10410;SDS011;5251;52.112;8.606;2023-05-07T07:30:59;10.57;;;9.48;;
10410;SDS011;5251;52.112;8.606;2023-05-07T07:33:24;9.38;;;8.40;;
10410;SDS011;5251;52.112;8.606;2023-05-07T07:35:50;10.02;;;8.73;;
10410;SDS011;5251;52.112;8.606;2023-05-07T07:38:15;10.30;;;8.07;;
10410;SDS011;5251;52.112;8.606;2023-05-07T07:40:41;9.15;;;8.25;;
10410;SDS011;5251;52.112;8.606;2023-05-07T07:43:08;8.80;;;7.78;;
10410;SDS011;5251;52.112;8.606;2023-05-07T07:45:34;9.13;;;8.20;;
10410;SDS011;5251;52.112;8.606;2023-05-07T07:48:00;9.57;;;8.43;;
10410;SDS011;5251;52.112;8.606;2023-05-07T07:50:25;8.25;;;7.40;;
10410;SDS011;5251;52.112;8.606;2023-05-07T07:52:51;8.00;;;7.20;;
10410;SDS011;5251;52.112;8.606;2023-05-07T07:55:19;9.05;;;7.65;;
10410;SDS011;5251;52.112;8.606;2023-05-07T07:57:47;10.30;;;7.97;;
10410;SDS011;5251;52.112;8.606;2023-05-07T08:00:14;9.63;;;8.15;;
10410;SDS011;5251;52.112;8.606;2023-05-07T08:02:40;8.65;;;7.75;;
10410;SDS011;5251;52.112;8.606;2023-05-07T08:05:06;8.00;;;7.13;;
10410;SDS011;5251;52.112;8.606;2023-05-07T08:07:32;8.55;;;7.65;;
10410;SDS011;5251;52.112;8.606;2023-05-07T08:09:58;8.30;;;7.30;;
10410;SDS011;5251;52.112;8.606;2023-05-07T08:12:23;7.60;;;6.90;;
10410;SDS011;5251;52.112;8.606;2023-05-07T08:14:49;7.65;;;6.88;;
10410;SDS011;5251;52.112;8.606;2023-05-07T08:17:15;7.70;;;6.90;;
10410;SDS011;5251;52.112;8.606;2023-05-07T08:19:41;7.47;;;6.78;;
10410;SDS011;5251;52.112;8.606;2023-05-07T08:22:08;7.60;;;6.43;;
10410;SDS011;5251;52.112;8.606;2023-05-07T08:24:34;7.57;;;6.78;;
10410;SDS011;5251;52.112;8.606;2023-05-07T08:27:00;6.88;;;6.18;;
10410;SDS011;5251;52.112;8.606;2023-05-07T08:29:25;7.10;;;6.40;;
10410;SDS011;5251;52.112;8.606;2023-05-07T08:31:51;6.88;;;6.18;;
10410;SDS011;5251;52.112;8.606;2023-05-07T08:34:16;7.40;;;6.32;;
10410;SDS011;5251;52.112;8.606;2023-05-07T08:36:42;7.63;;;6.85;;
10410;SDS011;5251;52.112;8.606;2023-05-07T08:39:07;8.55;;;6.03;;
10410;SDS011;5251;52.112;8.606;2023-05-07T08:41:34;6.68;;;5.97;;
10410;SDS011;5251;52.112;8.606;2023-05-07T08:43:59;6.40;;;5.80;;
10410;SDS011;5251;52.112;8.606;2023-05-07T08:46:29;6.80;;;5.53;;
10410;SDS011;5251;52.112;8.606;2023-05-07T08:48:57;6.57;;;5.88;;
10410;SDS011;5251;52.112;8.606;2023-05-07T08:51:23;6.72;;;5.97;;
10410;SDS011;5251;52.112;8.606;2023-05-07T08:53:49;6.57;;;5.93;;
10410;SDS011;5251;52.112;8.606;2023-05-07T08:56:15;6.68;;;5.97;;
10410;SDS011;5251;52.112;8.606;2023-05-07T08:58:42;5.88;;;5.25;;
10410;SDS011;5251;52.112;8.606;2023-05-07T09:01:15;6.38;;;5.65;;
10410;SDS011;5251;52.112;8.606;2023-05-07T09:03:43;6.32;;;5.22;;
10410;SDS011;5251;52.112;8.606;2023-05-07T09:06:10;6.13;;;5.53;;
10410;SDS011;5251;52.112;8.606;2023-05-07T09:08:36;6.40;;;5.50;;
10410;SDS011;5251;52.112;8.606;2023-05-07T09:11:02;6.05;;;5.45;;
10410;SDS011;5251;52.112;8.606;2023-05-07T09:13:28;6.43;;;5.72;;
10410;SDS011;5251;52.112;8.606;2023-05-07T09:15:54;6.32;;;5.60;;
10410;SDS011;5251;52.112;8.606;2023-05-07T09:18:20;5.78;;;5.25;;
10410;SDS011;5251;52.112;8.606;2023-05-07T09:20:46;6.05;;;5.40;;
10410;SDS011;5251;52.112;8.606;2023-05-07T09:23:11;6.18;;;5.57;;
10410;SDS011;5251;52.112;8.606;2023-05-07T09:25:37;6.20;;;5.60;;
10410;SDS011;5251;52.112;8.606;2023-05-07T09:28:03;6.00;;;5.40;;
10410;SDS011;5251;52.112;8.606;2023-05-07T09:30:34;6.05;;;5.45;;
10410;SDS011;5251;52.112;8.606;2023-05-07T09:33:00;7.80;;;5.95;;
10410;SDS011;5251;52.112;8.606;2023-05-07T09:35:27;6.05;;;5.45;;
10410;SDS011;5251;52.112;8.606;2023-05-07T09:37:53;6.28;;;5.68;;
10410;SDS011;5251;52.112;8.606;2023-05-07T09:40:28;7.18;;;5.55;;
10410;SDS011;5251;52.112;8.606;2023-05-07T09:42:55;6.43;;;5.82;;
10410;SDS011;5251;52.112;8.606;2023-05-07T09:45:25;5.97;;;5.38;;
10410;SDS011;5251;52.112;8.606;2023-05-07T09:47:53;5.82;;;5.22;;
10410;SDS011;5251;52.112;8.606;2023-05-07T09:50:28;5.90;;;5.30;;
10410;SDS011;5251;52.112;8.606;2023-05-07T09:52:57;6.30;;;5.32;;
10410;SDS011;5251;52.112;8.606;2023-05-07T09:55:23;6.32;;;5.60;;
10410;SDS011;5251;52.112;8.606;2023-05-07T09:57:52;6.43;;;5.57;;
10410;SDS011;5251;52.112;8.606;2023-05-07T10:00:19;5.80;;;5.30;;
10410;SDS011;5251;52.112;8.606;2023-05-07T10:02:46;7.13;;;5.38;;
10410;SDS011;5251;52.112;8.606;2023-05-07T10:05:14;6.78;;;5.97;;
10410;SDS011;5251;52.112;8.606;2023-05-07T10:07:40;5.55;;;5.05;;
10410;SDS011;5251;52.112;8.606;2023-05-07T10:10:06;6.20;;;5.60;;
10410;SDS011;5251;52.112;8.606;2023-05-07T10:12:32;8.43;;;5.70;;
10410;SDS011;5251;52.112;8.606;2023-05-07T10:15:04;5.72;;;5.20;;
10410;SDS011;5251;52.112;8.606;2023-05-07T10:17:31;5.80;;;5.25;;
10410;SDS011;5251;52.112;8.606;2023-05-07T10:19:58;6.13;;;5.10;;
10410;SDS011;5251;52.112;8.606;2023-05-07T10:22:23;5.13;;;4.63;;
10410;SDS011;5251;52.112;8.606;2023-05-07T10:24:52;5.30;;;4.80;;
10410;SDS011;5251;52.112;8.606;2023-05-07T10:27:20;5.70;;;5.07;;
10410;SDS011;5251;52.112;8.606;2023-05-07T10:30:00;6.22;;;4.93;;
10410;SDS011;5251;52.112;8.606;2023-05-07T10:32:47;5.28;;;4.60;;
10410;SDS011;5251;52.112;8.606;2023-05-07T10:35:23;5.03;;;4.53;;
10410;SDS011;5251;52.112;8.606;2023-05-07T10:37:51;5.28;;;4.78;;
10410;SDS011;5251;52.112;8.606;2023-05-07T10:40:17;5.43;;;4.93;;
10410;SDS011;5251;52.112;8.606;2023-05-07T10:45:21;5.05;;;4.63;;
10410;SDS011;5251;52.112;8.606;2023-05-07T10:50:44;5.13;;;4.65;;
10410;SDS011;5251;52.112;8.606;2023-05-07T10:55:41;4.85;;;4.45;;
10410;SDS011;5251;52.112;8.606;2023-05-07T11:00:50;4.47;;;3.90;;
10410;SDS011;5251;52.112;8.606;2023-05-07T11:03:21;4.50;;;4.10;;
10410;SDS011;5251;52.112;8.606;2023-05-07T11:05:47;4.15;;;3.75;;
10410;SDS011;5251;52.112;8.606;2023-05-07T11:11:17;4.78;;;4.25;;
10410;SDS011;5251;52.112;8.606;2023-05-07T11:16:16;4.43;;;4.03;;
10410;SDS011;5251;52.112;8.606;2023-05-07T11:18:46;4.88;;;3.88;;
10410;SDS011;5251;52.112;8.606;2023-05-07T11:21:14;4.43;;;4.03;;
10410;SDS011;5251;52.112;8.606;2023-05-07T11:24:00;4.28;;;3.88;;
10410;SDS011;5251;52.112;8.606;2023-05-07T11:26:27;5.50;;;4.15;;
10410;SDS011;5251;52.112;8.606;2023-05-07T11:28:56;4.28;;;3.88;;
10410;SDS011;5251;52.112;8.606;2023-05-07T11:31:25;4.03;;;3.63;;
10410;SDS011;5251;52.112;8.606;2023-05-07T11:33:53;4.28;;;3.88;;
10410;SDS011;5251;52.112;8.606;2023-05-07T11:36:20;3.80;;;3.40;;
10410;SDS011;5251;52.112;8.606;2023-05-07T11:38:47;3.55;;;3.25;;
10410;SDS011;5251;52.112;8.606;2023-05-07T11:41:13;4.28;;;3.88;;
10410;SDS011;5251;52.112;8.606;2023-05-07T11:43:40;3.75;;;3.45;;
10410;SDS011;5251;52.112;8.606;2023-05-07T11:46:19;4.07;;;3.45;;
10410;SDS011;5251;52.112;8.606;2023-05-07T11:48:45;3.53;;;3.17;;
10410;SDS011;5251;52.112;8.606;2023-05-07T11:51:11;3.80;;;3.50;;
10410;SDS011;5251;52.112;8.606;2023-05-07T11:53:38;3.47;;;3.17;;
10410;SDS011;5251;52.112;8.606;2023-05-07T11:56:09;3.45;;;3.15;;
10410;SDS011;5251;52.112;8.606;2023-05-07T11:58:36;3.53;;;3.10;;
10410;SDS011;5251;52.112;8.606;2023-05-07T12:01:02;3.50;;;3.20;;
10410;SDS011;5251;52.112;8.606;2023-05-07T12:03:28;3.55;;;3.22;;
10410;SDS011;5251;52.112;8.606;2023-05-07T12:05:53;3.88;;;2.75;;
10410;SDS011;5251;52.112;8.606;2023-05-07T12:08:19;3.55;;;2.92;;
10410;SDS011;5251;52.112;8.606;2023-05-07T12:10:47;3.28;;;2.63;;
10410;SDS011;5251;52.112;8.606;2023-05-07T12:13:32;3.80;;;3.47;;
10410;SDS011;5251;52.112;8.606;2023-05-07T12:15:57;2.85;;;2.63;;
10410;SDS011;5251;52.112;8.606;2023-05-07T12:18:23;3.03;;;2.75;;
10410;SDS011;5251;52.112;8.606;2023-05-07T12:20:50;2.88;;;2.67;;
10410;SDS011;5251;52.112;8.606;2023-05-07T12:23:15;2.92;;;2.72;;
10410;SDS011;5251;52.112;8.606;2023-05-07T12:25:42;3.05;;;2.72;;
10410;SDS011;5251;52.112;8.606;2023-05-07T12:28:15;3.20;;;2.90;;
10410;SDS011;5251;52.112;8.606;2023-05-07T12:30:45;2.60;;;2.40;;
10410;SDS011;5251;52.112;8.606;2023-05-07T12:33:14;2.70;;;2.50;;
10410;SDS011;5251;52.112;8.606;2023-05-07T12:35:48;5.60;;;3.28;;
10410;SDS011;5251;52.112;8.606;2023-05-07T12:38:14;2.80;;;2.60;;
10410;SDS011;5251;52.112;8.606;2023-05-07T12:40:42;2.70;;;2.50;;
10410;SDS011;5251;52.112;8.606;2023-05-07T12:43:15;2.65;;;2.42;;
10410;SDS011;5251;52.112;8.606;2023-05-07T12:45:51;4.05;;;2.70;;
10410;SDS011;5251;52.112;8.606;2023-05-07T12:48:19;2.75;;;2.55;;
10410;SDS011;5251;52.112;8.606;2023-05-07T12:50:48;3.22;;;2.55;;
10410;SDS011;5251;52.112;8.606;2023-05-07T12:53:25;2.60;;;2.40;;
10410;SDS011;5251;52.112;8.606;2023-05-07T12:55:52;2.50;;;2.30;;
10410;SDS011;5251;52.112;8.606;2023-05-07T13:00:49;2.40;;;2.20;;
10410;SDS011;5251;52.112;8.606;2023-05-07T13:05:55;2.53;;;2.33;;
10410;SDS011;5251;52.112;8.606;2023-05-07T13:08:24;2.50;;;2.30;;
10410;SDS011;5251;52.112;8.606;2023-05-07T13:10:50;2.92;;;2.63;;
10410;SDS011;5251;52.112;8.606;2023-05-07T13:13:17;2.58;;;2.38;;
10410;SDS011;5251;52.112;8.606;2023-05-07T13:15:42;2.88;;;2.47;;
10410;SDS011;5251;52.112;8.606;2023-05-07T13:18:08;3.05;;;2.75;;
10410;SDS011;5251;52.112;8.606;2023-05-07T13:20:36;2.70;;;2.50;;
10410;SDS011;5251;52.112;8.606;2023-05-07T13:23:01;2.90;;;2.60;;
10410;SDS011;5251;52.112;8.606;2023-05-07T13:25:29;3.00;;;2.70;;
10410;SDS011;5251;52.112;8.606;2023-05-07T13:27:56;3.17;;;2.85;;
10410;SDS011;5251;52.112;8.606;2023-05-07T13:30:22;2.83;;;2.55;;
10410;SDS011;5251;52.112;8.606;2023-05-07T13:32:47;2.75;;;2.55;;
10410;SDS011;5251;52.112;8.606;2023-05-07T13:35:14;2.80;;;2.60;;
10410;SDS011;5251;52.112;8.606;2023-05-07T13:37:39;3.30;;;3.00;;
10410;SDS011;5251;52.112;8.606;2023-05-07T13:40:05;3.10;;;2.80;;
10410;SDS011;5251;52.112;8.606;2023-05-07T13:42:31;3.10;;;2.75;;
10410;SDS011;5251;52.112;8.606;2023-05-07T13:44:57;5.22;;;2.40;;
10410;SDS011;5251;52.112;8.606;2023-05-07T13:47:22;2.58;;;2.38;;
10410;SDS011;5251;52.112;8.606;2023-05-07T13:49:48;2.55;;;2.35;;
10410;SDS011;5251;52.112;8.606;2023-05-07T13:52:15;3.45;;;2.80;;
10410;SDS011;5251;52.112;8.606;2023-05-07T13:54:41;3.30;;;3.00;;
10410;SDS011;5251;52.112;8.606;2023-05-07T13:57:07;3.10;;;2.80;;
10410;SDS011;5251;52.112;8.606;2023-05-07T13:59:33;3.40;;;3.10;;
10410;SDS011;5251;52.112;8.606;2023-05-07T14:01:58;3.20;;;2.90;;
10410;SDS011;5251;52.112;8.606;2023-05-07T14:04:24;3.45;;;3.15;;
10410;SDS011;5251;52.112;8.606;2023-05-07T14:06:50;3.20;;;2.90;;
10410;SDS011;5251;52.112;8.606;2023-05-07T14:09:16;3.75;;;2.92;;
10410;SDS011;5251;52.112;8.606;2023-05-07T14:11:41;4.07;;;3.53;;
10410;SDS011;5251;52.112;8.606;2023-05-07T14:14:07;3.35;;;3.05;;
10410;SDS011;5251;52.112;8.606;2023-05-07T14:16:35;3.08;;;2.78;;
10410;SDS011;5251;52.112;8.606;2023-05-07T14:19:01;3.05;;;2.75;;
10410;SDS011;5251;52.112;8.606;2023-05-07T14:21:26;3.17;;;2.88;;
10410;SDS011;5251;52.112;8.606;2023-05-07T14:23:52;3.30;;;3.00;;
10410;SDS011;5251;52.112;8.606;2023-05-07T14:26:18;3.58;;;3.05;;
10410;SDS011;5251;52.112;8.606;2023-05-07T14:28:44;4.20;;;3.72;;
10410;SDS011;5251;52.112;8.606;2023-05-07T14:31:11;3.72;;;3.42;;
10410;SDS011;5251;52.112;8.606;2023-05-07T14:33:37;3.53;;;3.10;;
10410;SDS011;5251;52.112;8.606;2023-05-07T14:36:03;4.03;;;3.60;;
10410;SDS011;5251;52.112;8.606;2023-05-07T14:38:28;3.40;;;3.03;;
10410;SDS011;5251;52.112;8.606;2023-05-07T14:40:55;3.13;;;2.83;;
10410;SDS011;5251;52.112;8.606;2023-05-07T14:43:21;3.33;;;3.03;;
10410;SDS011;5251;52.112;8.606;2023-05-07T14:45:47;3.30;;;3.00;;
10410;SDS011;5251;52.112;8.606;2023-05-07T14:48:12;3.42;;;3.13;;
10410;SDS011;5251;52.112;8.606;2023-05-07T14:50:40;3.30;;;3.00;;
10410;SDS011;5251;52.112;8.606;2023-05-07T14:53:06;3.75;;;3.30;;
10410;SDS011;5251;52.112;8.606;2023-05-07T14:55:32;3.17;;;2.88;;
10410;SDS011;5251;52.112;8.606;2023-05-07T14:57:58;3.30;;;3.00;;
10410;SDS011;5251;52.112;8.606;2023-05-07T15:00:24;3.30;;;3.00;;
10410;SDS011;5251;52.112;8.606;2023-05-07T15:02:49;3.60;;;3.30;;
10410;SDS011;5251;52.112;8.606;2023-05-07T15:05:15;3.63;;;3.33;;